Time;durP1;ratioP1;P1;durP2;ratioP2;P2;SDS_P1;SDS_P2;PMS_P1;PMS_P2;Temp;Humidity;BMP_temperature;BMP_pressure;BME280_temperature;BME280_humidity;BME280_pressure;Samples;Min_cycle;Max_cycle;Signal;HPM_P1;HPM_P2
2022/01/02 00:01:22;;;;;;;69.95;11.65;;;;;;;;;;5054311;28;20304;-64
2022/01/02 00:03:52;;;;;;;69.53;10.60;;;;;;;;;;5054152;28;20213;-64
2022/01/02 00:06:21;;;;;;;69.78;11.18;;;;;;;;;;5054065;28;20218;-64
2022/01/02 00:08:48;;;;;;;70.97;11.65;;;;;;;;;;5053852;28;20637;-64
2022/01/02 00:11:17;;;;;;;71.03;11.38;;;;;;;;;;5053785;28;20232;-67
2022/01/02 00:13:47;;;;;;;72.53;11.95;;;;;;;;;;5053786;28;20297;-64
2022/01/02 00:16:18;;;;;;;76.50;13.95;;;;;;;;;;5053332;28;20252;-64
2022/01/02 00:18:51;;;;;;;70.45;12.57;;;;;;;;;;5053498;28;20226;-64
2022/01/02 00:21:21;;;;;;;72.90;11.70;;;;;;;;;;5053896;28;20234;-64
2022/01/02 00:23:58;;;;;;;70.05;11.70;;;;;;;;;;5053447;28;20262;-65
2022/01/02 00:26:34;;;;;;;72.68;11.27;;;;;;;;;;5054099;28;20191;-64
2022/01/02 00:29:02;;;;;;;68.07;10.10;;;;;;;;;;5053505;28;20305;-63
2022/01/02 00:31:32;;;;;;;71.72;10.55;;;;;;;;;;5053625;28;20233;-65
2022/01/02 00:33:59;;;;;;;69.30;11.02;;;;;;;;;;5053469;28;20206;-64
2022/01/02 00:36:26;;;;;;;69.00;10.85;;;;;;;;;;5053507;28;20213;-64
2022/01/02 00:38:53;;;;;;;68.10;9.98;;;;;;;;;;5053267;28;20252;-64
2022/01/02 00:41:25;;;;;;;68.82;10.68;;;;;;;;;;5053388;28;20230;-64
2022/01/02 00:43:56;;;;;;;69.38;11.10;;;;;;;;;;5053369;28;20210;-67
2022/01/02 00:46:23;;;;;;;68.40;10.70;;;;;;;;;;5053297;28;20296;-64
2022/01/02 00:48:54;;;;;;;66.57;9.73;;;;;;;;;;5052982;28;20202;-64
2022/01/02 00:51:28;;;;;;;73.65;10.55;;;;;;;;;;5053318;28;20318;-63
2022/01/02 00:53:58;;;;;;;69.55;11.25;;;;;;;;;;5053047;28;20678;-64
2022/01/02 00:56:28;;;;;;;69.05;9.43;;;;;;;;;;5053137;28;20213;-64
2022/01/02 00:58:59;;;;;;;69.28;10.95;;;;;;;;;;5052647;28;20779;-64
2022/01/02 01:01:30;;;;;;;73.15;12.70;;;;;;;;;;5053095;28;20236;-64
2022/01/02 01:03:59;;;;;;;72.28;12.52;;;;;;;;;;5052871;28;20210;-64
2022/01/02 01:06:27;;;;;;;73.10;12.55;;;;;;;;;;5052908;28;20221;-64
2022/01/02 01:08:57;;;;;;;72.60;12.38;;;;;;;;;;5052601;28;20208;-63
2022/01/02 01:11:26;;;;;;;72.80;12.23;;;;;;;;;;5052790;28;20237;-64
2022/01/02 01:13:53;;;;;;;67.55;9.68;;;;;;;;;;5052673;28;20210;-63
2022/01/02 01:16:21;;;;;;;67.40;10.00;;;;;;;;;;5053095;28;20229;-66
2022/01/02 01:18:48;;;;;;;65.85;9.70;;;;;;;;;;5052342;28;20226;-63
2022/01/02 01:21:17;;;;;;;68.32;9.98;;;;;;;;;;5052684;28;20230;-64
2022/01/02 01:23:44;;;;;;;66.25;9.60;;;;;;;;;;5052520;28;20210;-65
2022/01/02 01:26:15;;;;;;;70.57;10.38;;;;;;;;;;5052412;28;20210;-64
2022/01/02 01:28:43;;;;;;;68.00;9.82;;;;;;;;;;5051637;28;20202;-64
2022/01/02 01:31:10;;;;;;;68.10;9.98;;;;;;;;;;5052632;28;20228;-64
2022/01/02 01:33:37;;;;;;;69.35;10.13;;;;;;;;;;5052435;28;20241;-63
2022/01/02 01:36:04;;;;;;;66.25;9.18;;;;;;;;;;5052422;28;20639;-64
2022/01/02 01:38:33;;;;;;;68.78;10.60;;;;;;;;;;5051973;28;20222;-66
2022/01/02 01:41:02;;;;;;;67.43;9.32;;;;;;;;;;5052691;28;20710;-64
2022/01/02 01:43:37;;;;;;;65.97;9.35;;;;;;;;;;5052476;28;20204;-66
2022/01/02 01:46:05;;;;;;;64.88;8.98;;;;;;;;;;5052207;28;20674;-64
2022/01/02 01:48:32;;;;;;;69.32;9.45;;;;;;;;;;5051954;28;20277;-65
2022/01/02 01:50:59;;;;;;;67.97;9.75;;;;;;;;;;5052086;28;20326;-64
2022/01/02 01:53:26;;;;;;;67.40;9.93;;;;;;;;;;5051993;28;20312;-63
2022/01/02 01:55:56;;;;;;;66.57;9.55;;;;;;;;;;5052214;28;20210;-63
2022/01/02 01:58:24;;;;;;;67.38;9.93;;;;;;;;;;5051770;28;20268;-67
2022/01/02 02:00:51;;;;;;;67.60;9.43;;;;;;;;;;5052061;28;20689;-64
2022/01/02 02:03:18;;;;;;;67.60;9.10;;;;;;;;;;5051938;28;20207;-64
2022/01/02 02:05:45;;;;;;;65.20;8.93;;;;;;;;;;5051775;28;20218;-64
2022/01/02 02:08:12;;;;;;;67.18;10.80;;;;;;;;;;5051883;28;20203;-64
2022/01/02 02:10:41;;;;;;;67.10;9.25;;;;;;;;;;5052021;28;20233;-64
2022/01/02 02:13:10;;;;;;;66.30;9.55;;;;;;;;;;5050317;28;20202;-65
2022/01/02 02:15:37;;;;;;;64.57;9.52;;;;;;;;;;5051729;28;20213;-64
2022/01/02 02:18:04;;;;;;;70.65;11.13;;;;;;;;;;5051636;28;20503;-64
2022/01/02 02:20:33;;;;;;;66.63;9.18;;;;;;;;;;5051697;28;20272;-65
2022/01/02 02:23:02;;;;;;;68.30;10.27;;;;;;;;;;5051720;28;20206;-64
2022/01/02 02:25:29;;;;;;;67.00;9.55;;;;;;;;;;5051741;28;20206;-63
2022/01/02 02:27:58;;;;;;;64.80;8.85;;;;;;;;;;5051312;28;20202;-65
2022/01/02 02:30:26;;;;;;;68.63;10.30;;;;;;;;;;5051537;28;20210;-65
2022/01/02 02:32:54;;;;;;;71.15;11.07;;;;;;;;;;5051443;28;20758;-64
2022/01/02 02:35:22;;;;;;;66.40;9.45;;;;;;;;;;5051752;28;20212;-64
2022/01/02 02:37:50;;;;;;;66.30;9.02;;;;;;;;;;5051320;28;20771;-66
2022/01/02 02:40:19;;;;;;;72.03;9.75;;;;;;;;;;5053818;28;20202;-64
2022/01/02 02:42:50;;;;;;;67.20;9.00;;;;;;;;;;5055844;28;20300;-63
2022/01/02 02:50:58;;;;;;;67.13;9.77;;;;;;;;;;5055455;28;20709;-63
2022/01/02 02:53:27;;;;;;;68.57;10.25;;;;;;;;;;5055623;28;20202;-64
2022/01/02 02:55:57;;;;;;;70.43;9.43;;;;;;;;;;5055374;28;20297;-64
2022/01/02 02:58:41;;;;;;;66.30;8.82;;;;;;;;;;5054981;28;20322;-64
2022/01/02 03:01:09;;;;;;;67.97;9.05;;;;;;;;;;5055231;28;20705;-64
2022/01/02 03:03:37;;;;;;;65.05;8.88;;;;;;;;;;5055189;28;20210;-63
2022/01/02 03:06:04;;;;;;;64.65;8.50;;;;;;;;;;5055198;28;20628;-64
2022/01/02 03:08:33;;;;;;;66.20;9.85;;;;;;;;;;5055115;28;20547;-63
2022/01/02 03:11:00;;;;;;;65.43;9.85;;;;;;;;;;5054968;28;20254;-64
2022/01/02 03:13:28;;;;;;;69.53;9.60;;;;;;;;;;5055075;28;20293;-66
2022/01/02 03:15:55;;;;;;;67.85;9.63;;;;;;;;;;5054912;28;20297;-63
2022/01/02 03:18:22;;;;;;;64.47;8.52;;;;;;;;;;5054795;28;20234;-65
2022/01/02 03:20:49;;;;;;;66.78;8.77;;;;;;;;;;5054990;28;20233;-63
2022/01/02 03:23:16;;;;;;;65.60;9.40;;;;;;;;;;5054888;28;20202;-65
2022/01/02 03:25:45;;;;;;;66.38;9.45;;;;;;;;;;5054889;28;20213;-63
2022/01/02 03:28:12;;;;;;;67.07;9.50;;;;;;;;;;5054520;28;20873;-64
2022/01/02 03:30:39;;;;;;;66.95;8.65;;;;;;;;;;5054580;28;20770;-63
2022/01/02 03:33:06;;;;;;;65.03;8.70;;;;;;;;;;5054801;28;20582;-65
2022/01/02 03:35:33;;;;;;;65.50;9.25;;;;;;;;;;5054859;28;20305;-64
2022/01/02 03:38:01;;;;;;;65.55;7.78;;;;;;;;;;5054305;28;20749;-64
2022/01/02 03:40:28;;;;;;;67.57;9.02;;;;;;;;;;5054490;28;20717;-63
2022/01/02 03:42:56;;;;;;;67.28;8.52;;;;;;;;;;5054552;28;20610;-63
2022/01/02 03:45:24;;;;;;;66.32;9.05;;;;;;;;;;5057903;28;20677;-64
2022/01/02 03:47:51;;;;;;;63.63;8.13;;;;;;;;;;5059230;28;20203;-64
2022/01/02 03:50:18;;;;;;;65.38;8.73;;;;;;;;;;5059364;28;20204;-63
2022/01/02 03:52:45;;;;;;;67.95;9.63;;;;;;;;;;5058622;28;20221;-64
2022/01/02 03:55:12;;;;;;;72.40;12.23;;;;;;;;;;5059308;28;20297;-63
2022/01/02 03:57:40;;;;;;;73.35;12.88;;;;;;;;;;5062068;28;20222;-65
2022/01/02 04:00:09;;;;;;;70.35;12.85;;;;;;;;;;5059645;28;20230;-65
2022/01/02 04:02:37;;;;;;;69.20;10.80;;;;;;;;;;5054297;28;20431;-64
2022/01/02 04:05:05;;;;;;;67.50;9.95;;;;;;;;;;5054165;28;20619;-64
2022/01/02 04:07:33;;;;;;;66.93;10.13;;;;;;;;;;5053952;28;20212;-64
2022/01/02 04:10:02;;;;;;;68.95;10.50;;;;;;;;;;5053944;28;20208;-64
2022/01/02 04:12:29;;;;;;;68.00;8.75;;;;;;;;;;5054051;28;20225;-64
2022/01/02 04:14:56;;;;;;;67.50;8.65;;;;;;;;;;5053886;28;20217;-64
2022/01/02 04:17:24;;;;;;;66.03;8.95;;;;;;;;;;5053621;28;20683;-66
2022/01/02 04:19:52;;;;;;;65.70;8.23;;;;;;;;;;5053689;28;20714;-65
2022/01/02 04:22:19;;;;;;;69.22;9.23;;;;;;;;;;5053707;28;20225;-64
2022/01/02 04:24:47;;;;;;;64.13;7.72;;;;;;;;;;5053846;28;20306;-64
2022/01/02 04:27:16;;;;;;;66.32;9.70;;;;;;;;;;5053585;28;20206;-64
2022/01/02 04:29:43;;;;;;;65.18;8.52;;;;;;;;;;5053587;28;20202;-67
2022/01/02 04:32:11;;;;;;;65.82;9.18;;;;;;;;;;5053636;28;20313;-64
2022/01/02 04:34:39;;;;;;;70.28;10.40;;;;;;;;;;5053372;28;20294;-65
2022/01/02 04:37:06;;;;;;;68.18;9.77;;;;;;;;;;5053297;28;20203;-64
2022/01/02 04:39:34;;;;;;;64.93;8.30;;;;;;;;;;5053258;28;20226;-64
2022/01/02 04:42:01;;;;;;;64.60;8.75;;;;;;;;;;5053438;28;20313;-64
2022/01/02 04:44:28;;;;;;;63.25;8.15;;;;;;;;;;5053244;28;20214;-66
2022/01/02 04:46:55;;;;;;;67.53;9.43;;;;;;;;;;5053268;28;20213;-64
2022/01/02 04:49:22;;;;;;;63.58;7.90;;;;;;;;;;5053064;28;20209;-65
2022/01/02 04:51:52;;;;;;;67.70;9.20;;;;;;;;;;5053095;28;20598;-64
2022/01/02 04:54:20;;;;;;;66.32;8.60;;;;;;;;;;5053093;28;20202;-64
2022/01/02 04:56:47;;;;;;;70.07;10.52;;;;;;;;;;5053159;28;20209;-63
2022/01/02 04:59:14;;;;;;;74.47;10.02;;;;;;;;;;5052729;28;20233;-63
2022/01/02 05:01:41;;;;;;;66.90;9.38;;;;;;;;;;5053021;28;20222;-63
2022/01/02 05:04:08;;;;;;;74.00;9.68;;;;;;;;;;5052905;28;20202;-67
2022/01/02 05:06:35;;;;;;;66.38;8.90;;;;;;;;;;5052881;28;20213;-65
2022/01/02 05:09:04;;;;;;;67.97;8.93;;;;;;;;;;5052758;28;20230;-65
2022/01/02 05:11:31;;;;;;;68.78;9.25;;;;;;;;;;5052883;28;20309;-63
2022/01/02 05:13:58;;;;;;;65.40;9.88;;;;;;;;;;5052768;28;20206;-63
2022/01/02 05:16:26;;;;;;;65.00;9.30;;;;;;;;;;5052817;28;20233;-63
2022/01/02 05:18:53;;;;;;;67.30;9.35;;;;;;;;;;5052253;28;20225;-66
2022/01/02 05:21:20;;;;;;;68.65;9.13;;;;;;;;;;5052840;28;20230;-64
2022/01/02 05:23:47;;;;;;;68.07;9.65;;;;;;;;;;5052499;28;20682;-64
2022/01/02 05:26:16;;;;;;;68.63;9.15;;;;;;;;;;5052712;28;20210;-63
2022/01/02 05:28:43;;;;;;;66.10;8.23;;;;;;;;;;5052174;28;20683;-65
2022/01/02 05:31:10;;;;;;;67.65;9.60;;;;;;;;;;5052383;28;20317;-65
2022/01/02 05:33:37;;;;;;;65.18;8.55;;;;;;;;;;5052546;28;20210;-66
2022/01/02 05:36:04;;;;;;;67.38;9.30;;;;;;;;;;5052543;28;20202;-63
2022/01/02 05:38:32;;;;;;;67.55;9.60;;;;;;;;;;5052031;28;20292;-63
2022/01/02 05:40:59;;;;;;;66.93;10.00;;;;;;;;;;5052002;28;20288;-63
2022/01/02 05:43:27;;;;;;;69.30;10.60;;;;;;;;;;5052157;28;20298;-64
2022/01/02 05:45:55;;;;;;;67.05;9.93;;;;;;;;;;5052158;28;20237;-64
2022/01/02 05:48:22;;;;;;;72.88;10.82;;;;;;;;;;5051913;28;20690;-64
2022/01/02 05:50:49;;;;;;;69.38;10.35;;;;;;;;;;5052195;28;20653;-63
2022/01/02 05:53:16;;;;;;;68.07;9.60;;;;;;;;;;5051962;28;20705;-63
2022/01/02 05:55:43;;;;;;;68.20;10.20;;;;;;;;;;5052187;28;20207;-64
2022/01/02 05:58:10;;;;;;;68.25;9.55;;;;;;;;;;5052276;28;20293;-64
2022/01/02 06:00:39;;;;;;;69.15;10.90;;;;;;;;;;5051833;28;20238;-64
2022/01/02 06:03:06;;;;;;;67.93;9.63;;;;;;;;;;5052051;28;20218;-65
2022/01/02 06:05:33;;;;;;;67.63;9.75;;;;;;;;;;5052022;28;20316;-64
2022/01/02 06:08:00;;;;;;;68.68;10.98;;;;;;;;;;5051711;28;20588;-65
2022/01/02 06:10:27;;;;;;;72.40;11.25;;;;;;;;;;5051738;28;20218;-64
2022/01/02 06:12:55;;;;;;;68.18;9.60;;;;;;;;;;5051667;28;20206;-64
2022/01/02 06:15:22;;;;;;;67.57;9.95;;;;;;;;;;5051601;28;20209;-64
2022/01/02 06:17:50;;;;;;;67.88;9.38;;;;;;;;;;5051681;28;20206;-64
2022/01/02 06:20:17;;;;;;;69.80;11.30;;;;;;;;;;5051675;28;20321;-64
2022/01/02 06:22:44;;;;;;;70.35;10.15;;;;;;;;;;5051744;28;20596;-65
2022/01/02 06:25:12;;;;;;;69.63;10.25;;;;;;;;;;5052136;28;20639;-64
2022/01/02 06:27:39;;;;;;;65.20;9.20;;;;;;;;;;5051388;28;20208;-65
2022/01/02 06:30:07;;;;;;;69.03;10.52;;;;;;;;;;5051832;28;20225;-66
2022/01/02 06:32:34;;;;;;;65.78;9.02;;;;;;;;;;5051768;28;20216;-64
2022/01/02 06:35:02;;;;;;;68.07;8.60;;;;;;;;;;5051757;28;20293;-65
2022/01/02 06:37:29;;;;;;;69.88;9.05;;;;;;;;;;5051408;28;20293;-64
2022/01/02 06:39:57;;;;;;;67.65;9.27;;;;;;;;;;5051449;28;20321;-64
2022/01/02 06:42:24;;;;;;;67.60;10.77;;;;;;;;;;5051612;28;20598;-64
2022/01/02 06:44:51;;;;;;;72.53;10.43;;;;;;;;;;5051459;28;20206;-66
2022/01/02 06:47:18;;;;;;;67.03;9.68;;;;;;;;;;5051179;28;20222;-64
2022/01/02 06:49:45;;;;;;;68.47;9.30;;;;;;;;;;5051812;28;20214;-65
2022/01/02 06:52:14;;;;;;;66.97;8.93;;;;;;;;;;5051433;28;20318;-64
2022/01/02 06:54:41;;;;;;;68.78;9.70;;;;;;;;;;5051314;28;20301;-63
2022/01/02 06:57:08;;;;;;;65.45;8.15;;;;;;;;;;5051387;28;20213;-65
2022/01/02 06:59:35;;;;;;;65.53;8.80;;;;;;;;;;5051531;28;20317;-64
2022/01/02 07:02:02;;;;;;;66.28;9.65;;;;;;;;;;5051429;28;20226;-64
2022/01/02 07:04:29;;;;;;;66.30;9.65;;;;;;;;;;5051161;28;20282;-67
2022/01/02 07:06:57;;;;;;;65.55;9.35;;;;;;;;;;5051147;28;20225;-64
2022/01/02 07:09:25;;;;;;;67.53;9.27;;;;;;;;;;5050908;28;20209;-65
2022/01/02 07:11:52;;;;;;;68.60;9.75;;;;;;;;;;5051153;28;20718;-64
2022/01/02 07:14:19;;;;;;;67.00;8.75;;;;;;;;;;5051347;28;20202;-64
2022/01/02 07:16:47;;;;;;;69.13;9.40;;;;;;;;;;5051404;28;20202;-64
2022/01/02 07:19:14;;;;;;;65.30;9.27;;;;;;;;;;5050879;28;20292;-64
2022/01/02 07:21:41;;;;;;;65.60;9.13;;;;;;;;;;5050965;28;20226;-65
2022/01/02 07:24:08;;;;;;;65.28;8.35;;;;;;;;;;5050965;28;20297;-64
2022/01/02 07:26:37;;;;;;;66.60;9.10;;;;;;;;;;5052376;28;20206;-64
2022/01/02 07:29:04;;;;;;;70.68;10.13;;;;;;;;;;5054724;28;20232;-67
2022/01/02 07:31:31;;;;;;;68.53;9.55;;;;;;;;;;5054715;28;20222;-64
2022/01/02 07:33:58;;;;;;;68.57;11.57;;;;;;;;;;5054596;28;20210;-65
2022/01/02 07:36:25;;;;;;;65.07;9.48;;;;;;;;;;5054562;28;20210;-64
2022/01/02 07:38:52;;;;;;;67.10;9.10;;;;;;;;;;5054514;28;20206;-65
2022/01/02 07:41:20;;;;;;;69.68;9.57;;;;;;;;;;5054555;28;20337;-64
2022/01/02 07:43:48;;;;;;;67.13;9.30;;;;;;;;;;5054410;28;20226;-64
2022/01/02 07:46:15;;;;;;;74.22;11.43;;;;;;;;;;5054486;28;20210;-63
2022/01/02 07:48:42;;;;;;;68.03;10.07;;;;;;;;;;5054080;28;20306;-66
2022/01/02 07:51:10;;;;;;;70.53;10.40;;;;;;;;;;5054527;28;20219;-64
2022/01/02 07:53:37;;;;;;;66.43;9.20;;;;;;;;;;5054394;28;20587;-65
2022/01/02 07:56:04;;;;;;;72.32;10.75;;;;;;;;;;5054217;28;20218;-64
2022/01/02 07:58:31;;;;;;;68.90;10.38;;;;;;;;;;5053993;28;20206;-65
2022/01/02 08:01:00;;;;;;;74.80;9.68;;;;;;;;;;5054143;28;20317;-65
2022/01/02 08:03:27;;;;;;;67.95;10.00;;;;;;;;;;5053937;28;20472;-64
2022/01/02 08:05:54;;;;;;;70.50;9.52;;;;;;;;;;5054066;28;20409;-65
2022/01/02 08:08:21;;;;;;;69.30;10.32;;;;;;;;;;5053608;28;20217;-64
2022/01/02 08:10:48;;;;;;;67.10;11.73;;;;;;;;;;5053947;28;20309;-64
2022/01/02 08:13:15;;;;;;;67.78;10.05;;;;;;;;;;5053983;28;20233;-67
2022/01/02 08:15:43;;;;;;;68.18;10.95;;;;;;;;;;5053805;28;20206;-65
2022/01/02 08:18:13;;;;;;;69.57;10.55;;;;;;;;;;5053564;28;20667;-64
2022/01/02 08:20:41;;;;;;;69.13;10.25;;;;;;;;;;5053929;28;20231;-64
2022/01/02 08:23:08;;;;;;;68.43;11.85;;;;;;;;;;5053858;28;20297;-64
2022/01/02 08:25:35;;;;;;;69.03;10.73;;;;;;;;;;5053725;28;20206;-64
2022/01/02 08:28:02;;;;;;;69.88;11.00;;;;;;;;;;5053597;28;20581;-64
2022/01/02 08:30:30;;;;;;;70.40;11.50;;;;;;;;;;5053451;28;20226;-67
2022/01/02 08:32:57;;;;;;;66.85;10.27;;;;;;;;;;5053716;28;20221;-64
2022/01/02 08:35:25;;;;;;;67.72;10.80;;;;;;;;;;5053830;28;20202;-65
2022/01/02 08:37:52;;;;;;;70.55;10.80;;;;;;;;;;5053144;28;20202;-65
2022/01/02 08:40:20;;;;;;;70.25;11.27;;;;;;;;;;5053405;28;20245;-65
2022/01/02 08:42:47;;;;;;;68.50;12.10;;;;;;;;;;5053332;28;20207;-65
2022/01/02 08:45:14;;;;;;;70.38;11.95;;;;;;;;;;5053392;28;20214;-65
2022/01/02 08:47:41;;;;;;;70.47;11.82;;;;;;;;;;5053254;28;20225;-64
2022/01/02 08:50:08;;;;;;;71.57;11.90;;;;;;;;;;5053163;28;20212;-66
2022/01/02 08:52:37;;;;;;;72.32;12.68;;;;;;;;;;5053137;28;20268;-64
2022/01/02 08:55:04;;;;;;;73.38;12.60;;;;;;;;;;5053494;28;20202;-65
2022/01/02 08:57:31;;;;;;;69.28;11.30;;;;;;;;;;5052839;28;20229;-64
2022/01/02 08:59:59;;;;;;;69.47;11.10;;;;;;;;;;5053210;28;20347;-65
2022/01/02 09:02:26;;;;;;;71.40;12.63;;;;;;;;;;5053017;28;20229;-65
2022/01/02 09:04:53;;;;;;;77.78;15.55;;;;;;;;;;5053239;28;20697;-65
2022/01/02 09:07:20;;;;;;;72.20;12.20;;;;;;;;;;5052635;28;20206;-64
2022/01/02 09:09:48;;;;;;;72.40;12.95;;;;;;;;;;5052946;28;20441;-65
2022/01/02 09:12:16;;;;;;;72.37;13.37;;;;;;;;;;5052653;28;20256;-65
2022/01/02 09:14:43;;;;;;;69.40;12.77;;;;;;;;;;5053087;28;20448;-66
2022/01/02 09:17:10;;;;;;;71.23;12.40;;;;;;;;;;5052646;28;20450;-65
2022/01/02 09:19:37;;;;;;;74.37;13.37;;;;;;;;;;5052732;28;20544;-65
2022/01/02 09:22:05;;;;;;;71.13;12.13;;;;;;;;;;5052657;28;20588;-64
2022/01/02 09:24:32;;;;;;;69.23;11.90;;;;;;;;;;5052523;28;20527;-65
2022/01/02 09:27:00;;;;;;;67.70;10.87;;;;;;;;;;5052418;28;20456;-65
2022/01/02 09:29:28;;;;;;;66.50;9.97;;;;;;;;;;5052293;28;20457;-65
2022/01/02 09:31:55;;;;;;;67.70;10.53;;;;;;;;;;5052358;28;20551;-64
2022/01/02 09:34:22;;;;;;;68.60;9.80;;;;;;;;;;5052489;28;20524;-64
2022/01/02 09:36:49;;;;;;;70.67;9.70;;;;;;;;;;5052408;28;20533;-64
2022/01/02 09:39:16;;;;;;;68.47;10.83;;;;;;;;;;5052042;28;20451;-64
2022/01/02 09:41:43;;;;;;;65.60;8.80;;;;;;;;;;5052097;28;20579;-67
2022/01/02 09:44:12;;;;;;;65.33;8.80;;;;;;;;;;5052225;28;20449;-65
2022/01/02 09:46:41;;;;;;;65.37;8.40;;;;;;;;;;5052313;28;20805;-64
2022/01/02 09:49:08;;;;;;;65.73;8.80;;;;;;;;;;5051371;28;20460;-64
2022/01/02 09:51:36;;;;;;;64.83;8.93;;;;;;;;;;5051891;28;20984;-66
2022/01/02 09:54:03;;;;;;;67.40;8.63;;;;;;;;;;5051974;28;20447;-65
2022/01/02 09:56:30;;;;;;;65.40;8.10;;;;;;;;;;5052190;28;20450;-67
2022/01/02 09:58:57;;;;;;;66.60;9.43;;;;;;;;;;5051948;28;20456;-64
2022/01/02 10:01:26;;;;;;;66.30;7.93;;;;;;;;;;5051865;28;20571;-64
2022/01/02 10:03:54;;;;;;;67.17;9.00;;;;;;;;;;5051923;28;20448;-64
2022/01/02 10:06:22;;;;;;;70.53;10.63;;;;;;;;;;5051660;28;20464;-64
2022/01/02 10:08:49;;;;;;;67.57;9.93;;;;;;;;;;5051696;28;20945;-63
2022/01/02 10:11:21;;;;;;;67.30;9.83;;;;;;;;;;5052088;28;20951;-65
2022/01/02 10:13:49;;;;;;;63.80;8.57;;;;;;;;;;5051919;28;20514;-64
2022/01/02 10:16:20;;;;;;;65.80;8.57;;;;;;;;;;5051784;28;20452;-67
2022/01/02 10:18:49;;;;;;;64.70;8.37;;;;;;;;;;5051437;28;20544;-64
2022/01/02 10:21:29;;;;;;;64.83;8.10;;;;;;;;;;5051781;28;20873;-64
2022/01/02 10:24:10;;;;;;;65.80;8.43;;;;;;;;;;5051684;28;20773;-64
2022/01/02 10:26:37;;;;;;;63.90;8.30;;;;;;;;;;5051757;28;20451;-64
2022/01/02 10:29:10;;;;;;;66.40;8.13;;;;;;;;;;5051471;28;20823;-64
2022/01/02 10:31:37;;;;;;;64.73;8.40;;;;;;;;;;5051925;28;20465;-65
2022/01/02 10:34:06;;;;;;;64.40;7.70;;;;;;;;;;5051755;28;20444;-64
2022/01/02 10:36:34;;;;;;;63.50;7.47;;;;;;;;;;5051775;28;20448;-65
2022/01/02 10:39:04;;;;;;;65.90;8.20;;;;;;;;;;5051472;28;20448;-65
2022/01/02 10:41:33;;;;;;;65.40;9.57;;;;;;;;;;5051641;28;20480;-65
2022/01/02 10:44:15;;;;;;;63.87;8.03;;;;;;;;;;5051421;28;20813;-64
2022/01/02 10:47:02;;;;;;;63.37;7.50;;;;;;;;;;5051557;28;20451;-65
2022/01/02 10:49:47;;;;;;;65.90;8.53;;;;;;;;;;5051169;28;20454;-65
2022/01/02 10:52:17;;;;;;;63.60;8.30;;;;;;;;;;5051287;28;20465;-65
2022/01/02 10:54:45;;;;;;;64.93;8.23;;;;;;;;;;5051699;28;20445;-65
2022/01/02 10:57:13;;;;;;;63.07;7.60;;;;;;;;;;5051345;28;20444;-65
2022/01/02 10:59:40;;;;;;;67.80;8.60;;;;;;;;;;5051662;28;20535;-64
2022/01/02 11:02:09;;;;;;;67.10;9.67;;;;;;;;;;5055003;28;20606;-67
2022/01/02 11:04:38;;;;;;;63.70;8.03;;;;;;;;;;5055046;28;20444;-65
2022/01/02 11:07:06;;;;;;;66.30;8.80;;;;;;;;;;5055126;28;20456;-65
2022/01/02 11:09:34;;;;;;;63.07;8.27;;;;;;;;;;5055236;28;20444;-64
2022/01/02 11:12:01;;;;;;;65.37;8.00;;;;;;;;;;5055222;28;20547;-65
2022/01/02 11:14:29;;;;;;;63.20;7.50;;;;;;;;;;5055097;28;20447;-64
2022/01/02 11:16:57;;;;;;;64.27;7.43;;;;;;;;;;5055060;28;20543;-64
2022/01/02 11:19:25;;;;;;;63.67;7.37;;;;;;;;;;5054580;28;20444;-64
2022/01/02 11:21:54;;;;;;;67.80;9.23;;;;;;;;;;5054673;28;20528;-67
2022/01/02 11:24:24;;;;;;;65.90;8.50;;;;;;;;;;5054880;28;20536;-64
2022/01/02 11:26:55;;;;;;;63.07;7.57;;;;;;;;;;5054940;28;20534;-65
2022/01/02 11:29:26;;;;;;;64.37;7.50;;;;;;;;;;5054697;28;20444;-65
2022/01/02 11:31:54;;;;;;;64.67;8.83;;;;;;;;;;5054920;28;20470;-64
2022/01/02 11:34:22;;;;;;;65.70;8.60;;;;;;;;;;5054565;28;20539;-64
2022/01/02 11:36:49;;;;;;;64.20;8.20;;;;;;;;;;5054922;28;20824;-65
2022/01/02 11:39:18;;;;;;;64.30;8.70;;;;;;;;;;5054515;28;20449;-65
2022/01/02 11:41:46;;;;;;;64.87;9.20;;;;;;;;;;5054499;28;20488;-64
2022/01/02 11:44:13;;;;;;;65.27;8.20;;;;;;;;;;5054292;28;20450;-64
2022/01/02 11:46:50;;;;;;;66.03;8.60;;;;;;;;;;5054477;28;20447;-64
2022/01/02 11:49:19;;;;;;;63.37;7.10;;;;;;;;;;5054611;28;20518;-64
2022/01/02 11:52:13;;;;;;;65.00;8.10;;;;;;;;;;5054404;28;20469;-64
2022/01/02 11:54:46;;;;;;;64.70;8.70;;;;;;;;;;5054327;28;20449;-64
2022/01/02 11:57:32;;;;;;;65.70;8.30;;;;;;;;;;5054294;28;20471;-66
2022/01/02 11:59:59;;;;;;;65.37;8.90;;;;;;;;;;5054867;28;20451;-64
2022/01/02 12:02:37;;;;;;;65.40;8.73;;;;;;;;;;5053859;28;20494;-65
2022/01/02 12:05:12;;;;;;;62.97;7.20;;;;;;;;;;5054071;28;20456;-64
2022/01/02 12:07:53;;;;;;;63.87;7.83;;;;;;;;;;5053870;28;20458;-61
2022/01/02 12:10:27;;;;;;;65.77;9.10;;;;;;;;;;5054089;28;20449;-64
2022/01/02 12:13:23;;;;;;;64.20;8.80;;;;;;;;;;5053434;28;20510;-65
2022/01/02 12:16:09;;;;;;;66.27;8.73;;;;;;;;;;5054218;28;20452;-64
2022/01/02 12:18:56;;;;;;;65.43;10.03;;;;;;;;;;5053737;28;20476;-64
2022/01/02 12:21:24;;;;;;;68.07;10.03;;;;;;;;;;5053763;28;20488;-65
2022/01/02 12:23:53;;;;;;;61.47;5.47;;;;;;;;;;5053755;28;20491;-64
2022/01/02 12:26:23;;;;;;;60.80;4.40;;;;;;;;;;5053717;28;20484;-64
2022/01/02 12:28:56;;;;;;;59.77;4.10;;;;;;;;;;5053467;28;20951;-64
2022/01/02 12:31:24;;;;;;;59.97;4.60;;;;;;;;;;5053822;28;20500;-64
2022/01/02 12:33:51;;;;;;;61.07;4.00;;;;;;;;;;5053646;28;20448;-64
2022/01/02 12:36:20;;;;;;;59.07;3.37;;;;;;;;;;5053831;28;20449;-65
2022/01/02 12:38:48;;;;;;;58.87;3.63;;;;;;;;;;5055189;28;20453;-65
2022/01/02 12:41:15;;;;;;;59.47;3.93;;;;;;;;;;5059320;28;20491;-65
2022/01/02 12:43:50;;;;;;;60.30;4.90;;;;;;;;;;5061627;28;20480;-67
2022/01/02 12:46:31;;;;;;;59.80;4.20;;;;;;;;;;5061903;28;20504;-63
2022/01/02 12:48:59;;;;;;;62.90;4.40;;;;;;;;;;5060474;28;20464;-64
2022/01/02 12:51:29;;;;;;;59.90;4.20;;;;;;;;;;5062143;28;20468;-63
2022/01/02 12:54:00;;;;;;;60.80;4.10;;;;;;;;;;5056772;28;20473;-66
2022/01/02 12:56:37;;;;;;;60.40;4.43;;;;;;;;;;5053293;28;20810;-63
2022/01/02 12:59:17;;;;;;;61.60;3.37;;;;;;;;;;5052859;28;20452;-66
2022/01/02 13:01:54;;;;;;;59.13;3.60;;;;;;;;;;5053159;28;20571;-63
2022/01/02 13:04:23;;;;;;;63.73;4.33;;;;;;;;;;5053079;28;20882;-64
2022/01/02 13:06:50;;;;;;;59.57;3.90;;;;;;;;;;5052934;28;20514;-63
2022/01/02 13:09:24;;;;;;;61.60;3.70;;;;;;;;;;5052795;28;20831;-64
2022/01/02 13:11:51;;;;;;;58.90;3.47;;;;;;;;;;5052764;28;20469;-64
2022/01/02 13:14:33;;;;;;;59.97;3.83;;;;;;;;;;5053012;28;20536;-63
2022/01/02 13:17:01;;;;;;;60.07;3.60;;;;;;;;;;5052792;28;20544;-63
2022/01/02 13:19:28;;;;;;;60.47;3.57;;;;;;;;;;5052435;28;20458;-65
2022/01/02 13:21:56;;;;;;;60.97;3.60;;;;;;;;;;5052487;28;20901;-64
2022/01/02 13:24:24;;;;;;;59.30;3.77;;;;;;;;;;5051831;28;20757;-63
2022/01/02 13:26:51;;;;;;;59.87;3.50;;;;;;;;;;5052515;28;20452;-63
2022/01/02 13:29:22;;;;;;;58.60;3.50;;;;;;;;;;5052297;28;20455;-63
2022/01/02 13:31:50;;;;;;;59.83;3.17;;;;;;;;;;5052540;28;20473;-63
2022/01/02 13:34:24;;;;;;;59.67;4.07;;;;;;;;;;5052371;28;20448;-65
2022/01/02 13:36:55;;;;;;;59.57;3.90;;;;;;;;;;5052300;28;20547;-65
2022/01/02 13:39:38;;;;;;;59.40;3.27;;;;;;;;;;5052315;28;20827;-64
2022/01/02 13:42:05;;;;;;;58.40;2.93;;;;;;;;;;5052496;28;20570;-63
2022/01/02 13:44:37;;;;;;;58.70;3.30;;;;;;;;;;5052212;28;20444;-64
2022/01/02 13:47:06;;;;;;;60.33;3.67;;;;;;;;;;5052160;28;20964;-63
2022/01/02 13:49:57;;;;;;;61.20;4.00;;;;;;;;;;5052353;28;20623;-64
2022/01/02 13:52:24;;;;;;;60.47;4.50;;;;;;;;;;5052152;28;20840;-65
2022/01/02 13:54:52;;;;;;;59.00;3.50;;;;;;;;;;5052200;28;20539;-65
2022/01/02 13:57:19;;;;;;;59.37;3.10;;;;;;;;;;5051866;28;20441;-64
2022/01/02 13:59:46;;;;;;;59.67;3.93;;;;;;;;;;5052035;28;20537;-64
2022/01/02 14:02:15;;;;;;;59.97;3.30;;;;;;;;;;5051992;28;20495;-64
2022/01/02 14:04:55;;;;;;;58.63;3.67;;;;;;;;;;5052235;28;20452;-65
2022/01/02 14:07:23;;;;;;;60.20;4.33;;;;;;;;;;5051732;28;20441;-64
2022/01/02 14:09:51;;;;;;;59.37;3.73;;;;;;;;;;5051921;28;20448;-63
2022/01/02 14:12:20;;;;;;;59.70;3.77;;;;;;;;;;5051669;28;20461;-63
2022/01/02 14:14:50;;;;;;;60.97;4.50;;;;;;;;;;5052195;28;20443;-63
2022/01/02 14:17:33;;;;;;;61.27;4.00;;;;;;;;;;5051689;28;20455;-63
2022/01/02 14:20:01;;;;;;;59.63;3.53;;;;;;;;;;5051790;28;20452;-65
2022/01/02 14:22:28;;;;;;;59.50;3.80;;;;;;;;;;5051432;28;20571;-63
2022/01/02 14:24:57;;;;;;;59.67;3.10;;;;;;;;;;5051722;28;20451;-64
2022/01/02 14:27:25;;;;;;;59.47;3.50;;;;;;;;;;5051918;28;20452;-63
2022/01/02 14:29:53;;;;;;;60.10;3.67;;;;;;;;;;5051592;28;20480;-62
2022/01/02 14:32:21;;;;;;;65.07;3.40;;;;;;;;;;5051528;28;20465;-62
2022/01/02 14:34:49;;;;;;;58.77;2.93;;;;;;;;;;5051692;28;20449;-63
2022/01/02 14:37:16;;;;;;;58.90;3.17;;;;;;;;;;5055492;28;20440;-65
2022/01/02 14:39:44;;;;;;;60.87;4.00;;;;;;;;;;5055678;28;20543;-63
2022/01/02 14:42:11;;;;;;;60.40;3.37;;;;;;;;;;5055700;28;20575;-63